createdAt,value
2022-11-28T00:05:32.938Z,42.03
2022-11-28T00:11:58.683Z,42.47
2022-11-28T00:24:16.639Z,40.47
2022-11-28T00:30:04.560Z,39.90
2022-11-28T00:35:53.893Z,39.80
2022-11-28T00:47:59.006Z,37.60
2022-11-28T00:53:24.508Z,37.93
2022-11-28T00:58:53.416Z,37.77
2022-11-28T01:11:04.547Z,39.93
2022-11-28T01:17:03.236Z,39.63
2022-11-28T01:23:28.933Z,40.20
2022-11-28T01:35:03.837Z,40.13
2022-11-28T01:41:07.125Z,39.57
2022-11-28T01:52:50.403Z,36.93
2022-11-28T01:58:20.858Z,36.97
2022-11-28T02:10:29.193Z,37.43
2022-11-28T02:16:34.355Z,33.00
2022-11-28T02:22:38.708Z,33.40
2022-11-28T02:28:28.465Z,35.67
2022-11-28T02:33:56.744Z,34.80
2022-11-28T02:39:42.245Z,33.93
2022-11-28T02:45:24.490Z,32.47
2022-11-28T02:50:51.566Z,32.67
2022-11-28T02:56:05.979Z,32.80
2022-11-28T03:01:36.534Z,31.77
2022-11-28T03:07:33.019Z,27.97
2022-11-28T03:13:46.895Z,29.13
2022-11-28T03:19:16.664Z,28.07
2022-11-28T03:24:49.197Z,28.00
2022-11-28T03:30:05.137Z,28.80
2022-11-28T03:35:30.645Z,27.67
2022-11-28T03:41:16.037Z,27.20
2022-11-28T03:47:01.754Z,28.47
2022-11-28T03:52:55.656Z,25.97
2022-11-28T03:58:27.917Z,27.07
2022-11-28T04:04:09.609Z,25.67
2022-11-28T04:09:46.217Z,22.07
2022-11-28T04:15:44.158Z,24.73
2022-11-28T04:21:28.986Z,24.43
2022-11-28T04:26:43.187Z,22.47
2022-11-28T04:32:14.176Z,21.77
2022-11-28T04:38:03.655Z,24.07
2022-11-28T04:43:37.947Z,23.80
2022-11-28T04:48:56.544Z,23.40
2022-11-28T04:54:23.259Z,23.80
2022-11-28T04:59:47.998Z,23.40
2022-11-28T05:12:03.589Z,25.10
2022-11-28T05:16:42.253Z,21.63
2022-11-28T05:21:45.897Z,22.20
2022-11-28T05:26:49.485Z,23.87
2022-11-28T05:31:53.336Z,23.07
2022-11-28T05:36:56.864Z,23.30
2022-11-28T05:42:00.356Z,21.07
2022-11-28T05:47:03.898Z,23.93
2022-11-28T05:52:07.446Z,23.20
2022-11-28T05:57:10.565Z,24.57
2022-11-28T06:02:14.006Z,22.63
2022-11-28T06:07:19.094Z,22.70
2022-11-28T06:12:22.515Z,20.93
2022-11-28T06:17:26.045Z,22.23
2022-11-28T06:22:30.007Z,21.73
2022-11-28T06:27:36.035Z,21.40
2022-11-28T06:32:39.545Z,22.93
2022-11-28T06:37:42.913Z,22.50
2022-11-28T06:42:52.775Z,22.77
2022-11-28T06:48:05.494Z,23.67
2022-11-28T06:53:09.545Z,24.00
2022-11-28T06:58:13.624Z,24.13
2022-11-28T07:03:21.510Z,23.47
2022-11-28T07:08:25.531Z,24.10
2022-11-28T07:13:29.328Z,22.10
2022-11-28T07:18:32.692Z,21.70
2022-11-28T07:23:35.973Z,22.73
2022-11-28T07:28:39.546Z,22.33
2022-11-28T07:33:45.365Z,22.63
2022-11-28T07:38:50.636Z,23.43
2022-11-28T07:43:56.914Z,25.57
2022-11-28T07:49:00.802Z,28.20
2022-11-28T07:54:05.834Z,32.97
2022-11-28T07:59:10.596Z,30.63
2022-11-28T08:04:14.483Z,31.40
2022-11-28T08:09:17.940Z,33.30
2022-11-28T08:14:21.192Z,35.37
2022-11-28T08:19:25.007Z,35.93
2022-11-28T08:24:32.029Z,34.00
2022-11-28T08:29:51.877Z,35.87
2022-11-28T08:35:09.406Z,34.93
2022-11-28T08:40:13.387Z,34.93
2022-11-28T08:45:17.296Z,34.67
2022-11-28T08:50:20.788Z,38.03
2022-11-28T08:55:31.971Z,37.73
2022-11-28T09:00:36.494Z,36.77
2022-11-28T09:05:46.066Z,41.73
2022-11-28T09:10:49.959Z,39.37
2022-11-28T09:15:53.861Z,40.70
2022-11-28T09:21:09.895Z,40.77
2022-11-28T09:26:20.124Z,42.47
2022-11-28T09:31:23.708Z,44.97
2022-11-28T09:36:29.264Z,40.90
2022-11-28T09:41:38.938Z,43.43
2022-11-28T09:46:43.585Z,43.10
2022-11-28T09:51:59.332Z,45.77
2022-11-28T09:57:03.994Z,43.97
2022-11-28T10:02:16.546Z,40.07
2022-11-28T10:07:58.841Z,31.97
2022-11-28T10:13:19.933Z,34.27
2022-11-28T10:18:26.359Z,27.37
2022-11-28T10:23:39.242Z,28.87
2022-11-28T10:28:47.216Z,28.93
2022-11-28T10:34:12.635Z,25.97
2022-11-28T10:39:16.623Z,27.37
2022-11-28T10:44:32.725Z,25.47
2022-11-28T11:04:18.435Z,28.03
2022-11-28T11:09:22.037Z,22.30
2022-11-28T11:14:42.040Z,24.77
2022-11-28T11:19:46.057Z,26.80
2022-11-28T11:25:13.031Z,23.53
2022-11-28T12:25:46.346Z,20.13
2022-11-28T12:31:49.883Z,19.83
2022-11-28T12:38:42.533Z,20.70
2022-11-28T12:44:41.638Z,22.57
2022-11-28T12:56:54.505Z,21.50
2022-11-28T13:03:03.491Z,21.87
2022-11-28T13:08:47.937Z,19.93
2022-11-28T13:14:31.177Z,20.73
2022-11-28T13:19:46.005Z,21.83
2022-11-28T13:24:56.047Z,23.97
2022-11-28T13:30:17.086Z,21.37
2022-11-28T13:35:56.379Z,25.43
2022-11-28T13:41:52.826Z,25.13
2022-11-28T13:46:58.871Z,25.97
2022-11-28T13:52:20.845Z,21.83
2022-11-28T13:57:50.741Z,25.03
2022-11-28T14:03:00.489Z,26.83
2022-11-28T14:08:06.012Z,28.03
2022-11-28T14:13:15.054Z,27.77
2022-11-28T14:18:55.545Z,30.73
2022-11-28T14:24:28.470Z,28.27
2022-11-28T14:29:41.413Z,26.60
2022-11-28T14:34:46.872Z,28.17
2022-11-28T14:39:54.360Z,30.57
2022-11-28T14:45:08.220Z,24.33
2022-11-28T14:50:14.079Z,25.67
2022-11-28T14:55:26.255Z,24.10
2022-11-28T15:00:54.115Z,22.83
2022-11-28T15:06:09.755Z,24.80
2022-11-28T15:11:47.333Z,26.73
2022-11-28T15:16:55.068Z,30.60
2022-11-28T15:21:58.835Z,31.50
2022-11-28T15:27:08.037Z,29.10
2022-11-28T15:32:17.100Z,29.27
2022-11-28T15:37:20.614Z,25.53
2022-11-28T15:48:40.078Z,26.07
2022-11-28T15:53:44.013Z,21.37
2022-11-28T15:58:48.504Z,23.60
2022-11-28T16:04:00.315Z,23.37
2022-11-28T16:09:24.533Z,24.27
2022-11-28T16:14:36.150Z,24.33
2022-11-28T16:19:40.000Z,23.03
2022-11-28T16:24:52.940Z,25.13
2022-11-28T16:29:56.855Z,28.07
2022-11-28T16:35:03.221Z,27.60
2022-11-28T16:40:17.775Z,26.70
2022-11-28T16:45:26.003Z,25.63
2022-11-28T16:50:33.445Z,26.13
2022-11-28T16:55:41.418Z,27.23
2022-11-28T17:01:00.413Z,30.37
2022-11-28T17:06:04.684Z,28.20
2022-11-28T17:11:08.634Z,27.53
2022-11-28T17:16:37.921Z,31.17
2022-11-28T17:21:45.572Z,28.47
2022-11-28T17:26:50.956Z,29.60
2022-11-28T17:31:58.059Z,24.50
2022-11-28T17:42:33.366Z,30.40
2022-11-28T17:47:37.333Z,29.70
2022-11-28T17:52:42.214Z,29.33
2022-11-28T17:57:46.524Z,23.80
2022-11-28T18:02:51.196Z,28.37
2022-11-28T18:07:55.649Z,28.90
2022-11-28T18:13:02.935Z,27.13
2022-11-28T18:18:07.472Z,26.47
2022-11-28T18:23:14.370Z,27.07
2022-11-28T18:28:20.817Z,26.37
2022-11-28T18:33:24.780Z,26.20
2022-11-28T18:38:29.735Z,28.33
2022-11-28T18:43:39.114Z,26.83
2022-11-28T18:48:46.004Z,23.47
2022-11-28T18:53:51.445Z,24.83
2022-11-28T18:58:56.743Z,23.40
2022-11-28T19:04:08.984Z,26.27
2022-11-28T19:09:17.374Z,24.33
2022-11-28T19:14:24.174Z,25.70
2022-11-28T19:19:34.624Z,28.23
2022-11-28T19:24:41.606Z,27.50
2022-11-28T19:29:45.935Z,26.67
2022-11-28T19:34:53.876Z,31.33
2022-11-28T19:40:02.372Z,26.77
2022-11-28T19:45:10.254Z,27.57
2022-11-28T19:50:16.155Z,28.83
2022-11-28T19:55:22.614Z,27.23
2022-11-28T20:00:28.224Z,24.73
2022-11-28T20:05:33.706Z,24.60
2022-11-28T20:10:42.426Z,27.43
2022-11-28T20:15:47.425Z,24.33
2022-11-28T20:20:53.515Z,24.57
2022-11-28T20:25:58.005Z,21.97
2022-11-28T20:31:04.492Z,22.40
2022-11-28T20:36:12.204Z,27.87
2022-11-28T20:41:19.601Z,27.13
2022-11-28T20:46:29.115Z,28.17
2022-11-28T20:51:37.719Z,22.00
2022-11-28T20:57:19.117Z,22.47
2022-11-28T21:02:11.789Z,22.60
2022-11-28T21:07:17.597Z,23.70
2022-11-28T21:12:24.337Z,19.67
2022-11-28T21:17:29.495Z,22.23
2022-11-28T21:22:33.208Z,18.00
2022-11-28T21:27:37.012Z,21.70
2022-11-28T21:32:40.699Z,19.53
2022-11-28T21:37:44.337Z,20.67
2022-11-28T21:42:48.674Z,22.13
2022-11-28T21:47:53.113Z,20.07
2022-11-28T21:52:56.692Z,21.83
2022-11-28T21:57:59.932Z,24.73
2022-11-28T22:03:06.894Z,23.87
2022-11-28T22:08:12.990Z,22.10
2022-11-28T22:13:17.125Z,14.10
2022-11-28T22:18:21.175Z,23.93
2022-11-28T22:23:25.117Z,22.70
2022-11-28T22:28:28.745Z,21.90
2022-11-28T22:33:32.415Z,21.13
2022-11-28T22:38:37.127Z,22.17
2022-11-28T22:43:41.854Z,25.03
2022-11-28T22:48:45.483Z,21.90
2022-11-28T22:53:52.747Z,23.77
2022-11-28T22:58:56.472Z,22.80
2022-11-28T23:04:00.555Z,18.77
2022-11-28T23:09:07.098Z,22.40
2022-11-28T23:14:14.494Z,22.77
2022-11-28T23:19:19.843Z,21.83
2022-11-28T23:24:23.933Z,20.37
2022-11-28T23:29:27.364Z,20.13
2022-11-28T23:34:31.173Z,20.97
2022-11-28T23:39:34.664Z,20.57
2022-11-28T23:44:37.779Z,23.97
2022-11-28T23:49:41.143Z,22.83
2022-11-28T23:54:44.380Z,24.97
2022-11-28T23:59:47.996Z,24.83
